createdAt,value
2019-06-07T00:02:05.902Z,24.93
2019-06-07T00:04:36.630Z,27.50
2019-06-07T00:07:09.043Z,26.43
2019-06-07T00:09:39.531Z,27.17
2019-06-07T00:12:12.058Z,22.40
2019-06-07T00:14:42.336Z,26.13
2019-06-07T00:17:15.358Z,27.17
2019-06-07T00:19:45.174Z,25.10
2019-06-07T00:22:25.346Z,28.50
2019-06-07T00:24:47.936Z,28.17
2019-06-07T00:27:22.275Z,27.60
2019-06-07T00:29:50.763Z,28.77
2019-06-07T00:32:22.030Z,32.40
2019-06-07T00:34:52.933Z,31.63
2019-06-07T00:37:25.504Z,29.00
2019-06-07T00:40:13.528Z,30.17
2019-06-07T00:42:27.938Z,35.47
2019-06-07T00:44:58.474Z,34.97
2019-06-07T00:47:29.062Z,35.00
2019-06-07T00:49:59.648Z,36.47
2019-06-07T00:55:02.437Z,37.43
2019-06-07T00:57:34.107Z,40.87
2019-06-07T01:00:05.399Z,44.40
2019-06-07T01:02:37.339Z,55.53
2019-06-07T01:05:09.842Z,43.47
2019-06-07T01:07:40.427Z,44.00
2019-06-07T01:10:13.937Z,43.10
2019-06-07T01:12:45.627Z,44.93
2019-06-07T01:15:22.224Z,42.43
2019-06-07T01:18:33.138Z,41.83
2019-06-07T01:20:24.377Z,48.53
2019-06-07T01:22:55.028Z,47.73
2019-06-07T01:25:26.419Z,44.07
2019-06-07T01:27:58.458Z,47.10
2019-06-07T01:30:32.082Z,49.10
2019-06-07T01:33:04.617Z,46.43
2019-06-07T01:35:34.910Z,44.90
2019-06-07T01:38:05.440Z,44.87
2019-06-07T01:40:36.028Z,45.20
2019-06-07T01:43:06.530Z,45.33
2019-06-07T01:45:37.028Z,42.60
2019-06-07T01:48:07.518Z,49.70
2019-06-07T01:50:38.594Z,50.07
2019-06-07T01:53:09.122Z,46.13
2019-06-07T01:55:39.754Z,49.37
2019-06-07T01:58:10.316Z,50.23
2019-06-07T02:00:40.994Z,42.23
2019-06-07T02:03:11.713Z,49.20
2019-06-07T02:05:42.355Z,47.87
2019-06-07T02:08:13.015Z,45.63
2019-06-07T02:10:43.622Z,54.70
2019-06-07T02:13:14.220Z,54.37
2019-06-07T02:15:45.930Z,45.93
2019-06-07T02:18:16.558Z,52.13
2019-06-07T02:20:47.209Z,48.77
2019-06-07T02:23:20.328Z,50.00
2019-06-07T02:25:51.176Z,48.57
2019-06-07T02:28:36.195Z,55.20
2019-06-07T02:30:59.992Z,55.27
2019-06-07T02:33:35.128Z,41.70
2019-06-07T02:36:03.688Z,46.37
2019-06-07T02:38:37.500Z,46.73
2019-06-07T02:41:06.286Z,44.23
2019-06-07T02:43:37.431Z,41.83
2019-06-07T02:46:30.588Z,38.27
2019-06-07T02:48:56.299Z,37.33
2019-06-07T02:51:32.421Z,39.13
2019-06-07T02:53:58.894Z,43.07
2019-06-07T02:56:54.130Z,37.80
2019-06-07T02:59:03.597Z,42.90
2019-06-07T03:01:41.217Z,41.67
2019-06-07T03:04:07.684Z,39.40
2019-06-07T03:06:43.819Z,40.40
2019-06-07T03:09:13.295Z,40.17
2019-06-07T03:11:45.461Z,40.47
2019-06-07T03:14:20.943Z,38.70
2019-06-07T03:17:03.241Z,35.63
2019-06-07T03:19:41.490Z,34.77
2019-06-07T03:22:11.988Z,36.33
2019-06-07T03:24:45.520Z,34.27
2019-06-07T03:27:34.580Z,34.77
2019-06-07T03:29:49.022Z,35.70
2019-06-07T03:32:19.561Z,38.17
2019-06-07T03:34:50.095Z,34.27
2019-06-07T03:37:22.091Z,44.47
2019-06-07T03:39:52.642Z,32.80
2019-06-07T03:42:23.896Z,34.57
2019-06-07T03:44:55.316Z,33.87
2019-06-07T03:47:28.399Z,35.57
2019-06-07T03:49:58.271Z,34.20
2019-06-07T03:52:35.040Z,30.73
2019-06-07T03:55:03.316Z,33.07
2019-06-07T03:58:24.842Z,32.33
2019-06-07T04:00:06.960Z,29.80
2019-06-07T04:02:41.745Z,33.57
2019-06-07T04:05:10.970Z,31.27
2019-06-07T04:07:44.321Z,29.30
2019-06-07T04:10:13.803Z,30.03
2019-06-07T04:12:45.774Z,30.70
2019-06-07T04:15:16.530Z,30.60
2019-06-07T04:18:01.356Z,28.50
2019-06-07T04:20:19.465Z,30.93
2019-06-07T04:22:50.144Z,31.50
2019-06-07T04:25:20.580Z,28.43
2019-06-07T04:27:51.516Z,32.77
2019-06-07T04:30:41.471Z,35.90
2019-06-07T04:33:11.446Z,42.17
2019-06-07T04:35:43.354Z,47.23
2019-06-07T04:38:14.820Z,44.13
2019-06-07T04:40:47.104Z,51.27
2019-06-07T04:43:17.708Z,54.10
2019-06-07T04:45:51.573Z,48.50
2019-06-07T04:48:22.692Z,42.70
2019-06-07T04:50:57.088Z,47.33
2019-06-07T04:53:30.082Z,49.57
2019-06-07T04:56:00.463Z,44.70
2019-06-07T04:58:33.252Z,49.93
2019-06-07T05:01:04.280Z,45.33
2019-06-07T05:03:38.870Z,46.87
2019-06-07T05:06:08.139Z,52.40
2019-06-07T05:08:43.608Z,48.80
2019-06-07T05:11:11.170Z,50.27
2019-06-07T05:13:43.889Z,47.73
2019-06-07T05:16:13.876Z,53.03
2019-06-07T05:18:44.430Z,54.33
2019-06-07T05:21:15.152Z,53.90
2019-06-07T05:24:09.187Z,59.23
2019-06-07T05:26:18.092Z,58.80
2019-06-07T05:28:48.842Z,57.97
2019-06-07T05:31:19.656Z,61.20
2019-06-07T05:33:52.660Z,58.37
2019-06-07T05:36:23.231Z,55.90
2019-06-07T05:38:53.847Z,54.33
2019-06-07T05:41:24.316Z,60.33
2019-06-07T05:44:12.023Z,52.80
2019-06-07T05:46:28.186Z,59.37
2019-06-07T05:48:58.770Z,54.23
2019-06-07T05:51:32.256Z,51.83
2019-06-07T05:54:02.798Z,53.53
2019-06-07T05:56:33.385Z,46.60
2019-06-07T05:59:03.926Z,59.80
2019-06-07T06:01:45.939Z,64.47
2019-06-07T06:04:06.751Z,56.43
2019-06-07T06:06:39.603Z,57.43
2019-06-07T06:09:13.732Z,57.23
2019-06-07T06:11:55.263Z,64.97
2019-06-07T06:14:13.723Z,59.17
2019-06-07T06:16:47.416Z,61.40
2019-06-07T06:19:16.409Z,59.17
2019-06-07T06:21:46.943Z,61.63
2019-06-07T06:24:17.443Z,66.57
2019-06-07T06:26:54.113Z,68.00
2019-06-07T06:29:20.328Z,64.13
2019-06-07T06:32:39.755Z,65.57
2019-06-07T06:34:23.092Z,60.83
2019-06-07T06:36:53.641Z,56.17
2019-06-07T06:39:24.231Z,69.93
2019-06-07T06:42:03.167Z,60.70
2019-06-07T06:44:26.969Z,67.30
2019-06-07T06:46:58.670Z,66.73
2019-06-07T06:49:29.365Z,60.83
2019-06-07T06:52:00.149Z,58.03
2019-06-07T06:54:40.538Z,59.53
2019-06-07T06:57:19.065Z,60.10
2019-06-07T06:59:39.717Z,56.40
2019-06-07T07:02:09.565Z,56.20
2019-06-07T07:04:41.899Z,60.07
2019-06-07T07:07:12.553Z,61.10
2019-06-07T07:09:50.257Z,63.57
2019-06-07T07:12:17.860Z,65.53
2019-06-07T07:14:52.152Z,68.17
2019-06-07T07:17:45.316Z,69.63
2019-06-07T07:19:55.637Z,79.07
2019-06-07T07:22:27.853Z,77.00
2019-06-07T07:24:59.473Z,79.57
2019-06-07T07:27:30.173Z,89.83
2019-06-07T07:30:34.889Z,85.77
2019-06-07T07:32:33.079Z,84.03
2019-06-07T07:35:03.608Z,86.13
2019-06-07T07:37:34.224Z,80.10
2019-06-07T07:40:48.046Z,79.00
2019-06-07T07:42:39.235Z,89.83
2019-06-07T07:45:09.843Z,76.77
2019-06-07T07:48:00.775Z,78.33
2019-06-07T07:50:12.688Z,79.77
2019-06-07T07:52:45.869Z,66.70
2019-06-07T07:55:15.323Z,76.10
2019-06-07T07:57:48.234Z,70.63
2019-06-07T08:00:49.331Z,71.33
2019-06-07T08:02:53.747Z,69.43
2019-06-07T08:05:41.512Z,68.77
2019-06-07T08:07:59.809Z,58.93
2019-06-07T08:10:29.759Z,60.90
2019-06-07T08:13:21.945Z,59.40
2019-06-07T08:15:32.743Z,58.80
2019-06-07T08:18:04.390Z,53.87
2019-06-07T08:20:35.518Z,53.93
2019-06-07T08:23:06.125Z,57.97
2019-06-07T08:25:36.633Z,52.23
2019-06-07T08:28:07.457Z,55.63
2019-06-07T08:31:02.356Z,52.73
2019-06-07T08:33:25.570Z,54.00
2019-06-07T08:36:10.459Z,52.77
2019-06-07T08:38:25.991Z,48.60
2019-06-07T08:40:46.807Z,44.23
2019-06-07T08:43:20.571Z,43.37
2019-06-07T08:45:53.177Z,46.50
2019-06-07T08:48:28.120Z,41.80
2019-06-07T08:50:56.987Z,46.03
2019-06-07T08:53:28.611Z,47.77
2019-06-07T08:56:06.924Z,46.53
2019-06-07T08:58:31.237Z,48.77
2019-06-07T09:01:06.431Z,56.03
2019-06-07T09:03:34.078Z,56.20
2019-06-07T09:06:16.108Z,58.20
2019-06-07T09:08:36.824Z,62.37
2019-06-07T09:11:11.177Z,58.67
2019-06-07T09:13:39.519Z,61.07
2019-06-07T09:16:11.582Z,58.83
2019-06-07T09:18:44.896Z,59.37
2019-06-07T09:21:14.353Z,59.10
2019-06-07T09:23:44.954Z,55.93
2019-06-07T09:26:18.412Z,55.80
2019-06-07T09:28:47.947Z,60.03
2019-06-07T09:31:18.624Z,57.37
2019-06-07T09:33:49.059Z,53.87
2019-06-07T09:36:19.556Z,55.20
2019-06-07T09:38:50.883Z,55.80
2019-06-07T09:41:21.662Z,51.90
2019-06-07T09:44:04.681Z,55.03
2019-06-07T09:46:24.305Z,53.23
2019-06-07T09:49:13.963Z,58.47
2019-06-07T09:51:26.959Z,47.50
2019-06-07T09:53:58.520Z,44.43
2019-06-07T09:56:29.665Z,47.03
2019-06-07T09:59:03.077Z,44.07
2019-06-07T10:01:32.229Z,50.57
2019-06-07T10:04:08.285Z,45.13
2019-06-07T10:06:34.856Z,45.73
2019-06-07T10:11:39.530Z,43.43
2019-06-07T10:14:10.064Z,41.77
2019-06-07T10:16:46.469Z,48.60
2019-06-07T10:19:12.684Z,48.77
2019-06-07T10:21:43.175Z,39.27
2019-06-07T10:24:13.738Z,43.00
2019-06-07T10:26:44.315Z,43.60
2019-06-07T10:29:14.854Z,41.73
2019-06-07T10:31:45.369Z,40.93
2019-06-07T10:34:15.885Z,45.07
2019-06-07T10:36:46.446Z,46.10
2019-06-07T10:39:17.067Z,47.40
2019-06-07T10:41:47.529Z,46.23
2019-06-07T10:44:18.025Z,51.77
2019-06-07T10:46:48.627Z,44.27
2019-06-07T10:49:19.113Z,44.03
2019-06-07T10:51:49.650Z,44.50
2019-06-07T10:54:27.895Z,39.63
2019-06-07T10:56:52.515Z,48.27
2019-06-07T10:59:23.964Z,38.87
2019-06-07T11:01:54.446Z,36.60
2019-06-07T11:04:25.274Z,35.47
2019-06-07T11:06:55.736Z,39.13
2019-06-07T11:09:26.302Z,34.37
2019-06-07T11:11:56.798Z,36.73
2019-06-07T11:14:27.374Z,35.37
2019-06-07T11:16:57.999Z,36.60
2019-06-07T11:19:28.549Z,32.83
2019-06-07T11:21:59.032Z,30.50
2019-06-07T11:24:29.625Z,28.50
2019-06-07T11:27:00.146Z,24.50
2019-06-07T11:29:30.661Z,25.70
2019-06-07T11:32:01.185Z,26.30
2019-06-07T11:34:31.874Z,25.40
2019-06-07T11:37:02.617Z,24.60
2019-06-07T11:39:33.141Z,27.40
2019-06-07T11:42:03.746Z,21.97
2019-06-07T11:44:34.508Z,27.73
2019-06-07T11:47:06.407Z,27.97
2019-06-07T11:49:37.195Z,21.83
2019-06-07T11:52:07.832Z,26.40
2019-06-07T11:54:38.321Z,25.20
2019-06-07T11:57:08.973Z,26.80
2019-06-07T11:59:39.504Z,31.60
2019-06-07T12:02:11.457Z,36.30
2019-06-07T12:04:42.241Z,27.13
2019-06-07T12:07:14.164Z,31.33
2019-06-07T12:09:55.964Z,26.90
2019-06-07T12:12:17.159Z,27.77
2019-06-07T12:14:47.744Z,28.13
2019-06-07T12:17:19.506Z,31.50
2019-06-07T12:19:50.093Z,25.97
2019-06-07T12:22:20.599Z,28.77
2019-06-07T12:24:51.173Z,27.93
2019-06-07T12:27:22.250Z,24.67
2019-06-07T12:29:52.738Z,23.20
2019-06-07T12:32:23.198Z,21.70
2019-06-07T12:34:53.715Z,22.20
2019-06-07T12:37:42.057Z,23.73
2019-06-07T12:39:56.333Z,24.00
2019-06-07T12:42:26.821Z,24.97
2019-06-07T12:44:57.474Z,26.33
2019-06-07T12:47:27.889Z,21.27
2019-06-07T12:49:58.583Z,19.17
2019-06-07T12:52:30.132Z,17.80
2019-06-07T12:55:00.693Z,21.50
2019-06-07T12:57:31.269Z,18.80
2019-06-07T13:00:01.705Z,17.90
2019-06-07T13:02:32.330Z,21.73
2019-06-07T13:05:04.696Z,18.77
2019-06-07T13:07:35.201Z,18.47
2019-06-07T13:10:07.070Z,18.60
2019-06-07T13:12:37.557Z,18.67
2019-06-07T13:15:08.991Z,22.73
2019-06-07T13:17:39.495Z,17.03
2019-06-07T13:20:11.967Z,18.55
2019-06-07T13:22:42.510Z,19.43
2019-06-07T13:25:16.188Z,18.90
2019-06-07T13:27:47.945Z,14.77
2019-06-07T13:30:19.050Z,20.97
2019-06-07T13:32:49.884Z,15.72
2019-06-07T13:35:22.114Z,14.67
2019-06-07T13:37:52.500Z,14.28
2019-06-07T13:40:23.358Z,14.67
2019-06-07T13:42:55.256Z,17.87
2019-06-07T13:45:26.157Z,15.93
2019-06-07T13:47:56.790Z,16.80
2019-06-07T13:50:28.460Z,20.15
2019-06-07T13:52:59.549Z,20.30
2019-06-07T13:55:31.175Z,16.95
2019-06-07T13:58:01.628Z,14.55
2019-06-07T14:00:33.195Z,14.43
2019-06-07T14:03:05.592Z,15.70
2019-06-07T14:05:36.309Z,17.02
2019-06-07T14:08:06.866Z,16.65
2019-06-07T14:10:37.505Z,17.15
2019-06-07T14:13:08.130Z,15.75
2019-06-07T14:15:38.836Z,17.50
2019-06-07T14:18:09.529Z,15.93
2019-06-07T14:20:40.148Z,17.67
2019-06-07T14:23:10.668Z,15.15
2019-06-07T14:25:41.227Z,14.93
2019-06-07T14:28:12.114Z,22.30
2019-06-07T14:30:42.839Z,15.18
2019-06-07T14:33:13.480Z,14.83
2019-06-07T14:35:44.048Z,14.33
2019-06-07T14:38:14.711Z,15.55
2019-06-07T14:40:45.258Z,15.53
2019-06-07T14:43:15.848Z,15.83
2019-06-07T14:45:46.402Z,14.60
2019-06-07T14:48:17.939Z,18.25
2019-06-07T14:50:49.086Z,16.35
2019-06-07T14:53:20.496Z,18.90
2019-06-07T14:55:51.261Z,15.28
2019-06-07T14:58:21.889Z,14.03
2019-06-07T15:00:52.480Z,15.88
2019-06-07T15:03:23.010Z,16.05
2019-06-07T15:05:53.601Z,17.93
2019-06-07T15:08:24.269Z,14.53
2019-06-07T15:10:54.777Z,14.45
2019-06-07T15:13:25.396Z,15.47
2019-06-07T15:15:55.886Z,17.23
2019-06-07T15:18:27.591Z,15.13
2019-06-07T15:20:58.607Z,14.60
2019-06-07T15:23:29.391Z,21.25
2019-06-07T15:25:59.924Z,15.00
2019-06-07T15:28:32.222Z,16.10
2019-06-07T15:31:04.151Z,21.20
2019-06-07T15:33:36.411Z,15.17
2019-06-07T15:36:07.153Z,14.25
2019-06-07T15:38:39.947Z,14.57
2019-06-07T15:41:11.458Z,17.13
2019-06-07T15:43:41.961Z,15.63
2019-06-07T15:46:12.626Z,14.00
2019-06-07T15:48:44.459Z,14.93
2019-06-07T15:51:15.003Z,14.35
2019-06-07T15:53:45.648Z,18.45
2019-06-07T15:56:16.947Z,13.55
2019-06-07T15:58:47.400Z,14.30
2019-06-07T16:01:17.875Z,14.53
2019-06-07T16:03:48.388Z,14.67
2019-06-07T16:06:19.749Z,15.70
2019-06-07T16:08:50.659Z,14.33
2019-06-07T16:11:21.418Z,15.23
2019-06-07T16:13:52.019Z,12.80
2019-06-07T16:16:22.633Z,20.27
2019-06-07T16:18:53.334Z,14.60
2019-06-07T16:21:24.822Z,12.77
2019-06-07T16:23:55.307Z,16.02
2019-06-07T16:26:26.964Z,13.30
2019-06-07T16:28:57.431Z,13.55
2019-06-07T16:31:27.986Z,13.93
2019-06-07T16:33:58.542Z,14.43
2019-06-07T16:36:29.153Z,16.03
2019-06-07T16:38:59.777Z,15.07
2019-06-07T16:41:30.434Z,20.53
2019-06-07T16:44:01.069Z,14.85
2019-06-07T16:46:31.732Z,13.80
2019-06-07T16:49:02.330Z,14.07
2019-06-07T16:51:32.880Z,15.13
2019-06-07T16:54:03.449Z,15.50
2019-06-07T16:56:34.023Z,13.70
2019-06-07T16:59:04.577Z,14.70
2019-06-07T17:01:35.294Z,19.73
2019-06-07T17:04:05.857Z,14.67
2019-06-07T17:06:37.605Z,15.30
2019-06-07T17:09:08.980Z,16.23
2019-06-07T17:11:40.412Z,15.15
2019-06-07T17:14:11.207Z,14.95
2019-06-07T17:16:43.188Z,13.10
2019-06-07T17:19:14.048Z,17.17
2019-06-07T17:21:45.385Z,13.87
2019-06-07T17:24:16.071Z,13.90
2019-06-07T17:26:47.690Z,17.13
2019-06-07T17:29:19.398Z,13.22
2019-06-07T17:31:50.361Z,13.60
2019-06-07T17:34:22.762Z,14.35
2019-06-07T17:36:53.258Z,13.93
2019-06-07T17:39:23.898Z,14.20
2019-06-07T17:42:01.713Z,14.63
2019-06-07T17:44:26.656Z,13.80
2019-06-07T17:46:58.301Z,17.92
2019-06-07T17:49:29.016Z,13.13
2019-06-07T17:51:59.666Z,12.50
2019-06-07T17:54:30.184Z,14.15
2019-06-07T17:57:00.708Z,14.00
2019-06-07T17:59:31.770Z,19.77
2019-06-07T18:02:14.329Z,17.57
2019-06-07T18:04:34.985Z,21.23
2019-06-07T18:07:05.921Z,18.60
2019-06-07T18:09:38.100Z,27.77
2019-06-07T18:12:08.610Z,23.53
2019-06-07T18:14:39.194Z,19.83
2019-06-07T18:17:09.704Z,19.80
2019-06-07T18:19:41.004Z,23.03
2019-06-07T18:22:11.557Z,24.37
2019-06-07T18:24:42.088Z,24.40
2019-06-07T18:27:12.877Z,20.23
2019-06-07T18:29:43.612Z,18.47
2019-06-07T18:32:14.188Z,17.77
2019-06-07T18:34:46.781Z,16.77
2019-06-07T18:37:17.466Z,18.87
2019-06-07T18:39:48.934Z,21.23
2019-06-07T18:42:20.998Z,23.15
2019-06-07T18:44:53.120Z,20.87
2019-06-07T18:47:23.857Z,17.93
2019-06-07T18:49:55.560Z,18.43
2019-06-07T18:52:32.814Z,18.83
2019-06-07T18:55:03.434Z,17.93
2019-06-07T18:57:36.254Z,21.50
2019-06-07T19:00:08.509Z,20.70
2019-06-07T19:02:39.178Z,17.83
2019-06-07T19:05:10.255Z,17.70
2019-06-07T19:07:40.761Z,20.60
2019-06-07T19:10:12.042Z,21.00
2019-06-07T19:12:42.652Z,23.60
2019-06-07T19:15:14.086Z,24.77
2019-06-07T19:17:44.713Z,26.33
2019-06-07T19:20:16.108Z,23.43
2019-06-07T19:22:46.873Z,23.87
2019-06-07T19:25:17.769Z,25.07
2019-06-07T19:27:48.649Z,24.07
2019-06-07T19:30:19.438Z,23.37
2019-06-07T19:32:51.322Z,19.37
2019-06-07T19:35:21.949Z,17.80
2019-06-07T19:37:53.678Z,22.47
2019-06-07T19:40:24.449Z,33.33
2019-06-07T19:42:56.257Z,29.20
2019-06-07T19:45:30.970Z,34.83
2019-06-07T19:48:00.664Z,40.60
2019-06-07T19:50:31.542Z,41.73
2019-06-07T19:53:04.087Z,38.00
2019-06-07T19:55:34.833Z,48.13
2019-06-07T19:58:08.079Z,43.10
2019-06-07T20:00:40.324Z,60.37
2019-06-07T20:03:12.488Z,83.80
2019-06-07T20:05:43.111Z,91.03
2019-06-07T20:08:14.764Z,51.43
2019-06-07T20:10:46.381Z,47.27
2019-06-07T20:13:19.151Z,48.07
2019-06-07T20:15:49.303Z,37.77
2019-06-07T20:18:20.103Z,37.70
2019-06-07T20:20:50.948Z,38.97
2019-06-07T20:23:21.550Z,38.00
2019-06-07T20:25:52.119Z,31.87
2019-06-07T20:28:22.991Z,35.27
2019-06-07T20:30:53.559Z,29.30
2019-06-07T20:33:24.208Z,28.33
2019-06-07T20:35:56.604Z,26.60
2019-06-07T20:38:27.357Z,24.23
2019-06-07T20:40:58.936Z,26.23
2019-06-07T20:43:30.299Z,29.13
2019-06-07T20:46:03.290Z,26.93
2019-06-07T20:48:33.102Z,27.03
2019-06-07T20:51:04.619Z,24.93
2019-06-07T20:53:35.279Z,24.30
2019-06-07T20:56:06.829Z,27.80
2019-06-07T20:58:37.485Z,24.40
2019-06-07T21:01:09.008Z,21.80
2019-06-07T21:03:39.752Z,22.97
2019-06-07T21:06:10.304Z,24.53
2019-06-07T21:08:40.918Z,25.47
2019-06-07T21:11:11.413Z,25.87
2019-06-07T21:13:41.995Z,27.47
2019-06-07T21:16:12.576Z,27.50
2019-06-07T21:18:43.140Z,28.20
2019-06-07T21:21:13.689Z,27.27
2019-06-07T21:23:44.371Z,30.30
2019-06-07T21:26:14.919Z,31.20
2019-06-07T21:28:45.455Z,30.10
2019-06-07T21:31:16.021Z,29.70
2019-06-07T21:33:46.539Z,30.03
2019-06-07T21:36:17.095Z,28.13
2019-06-07T21:38:49.297Z,29.90
2019-06-07T21:41:19.874Z,31.50
2019-06-07T21:43:52.135Z,30.87
2019-06-07T21:46:22.755Z,29.20
2019-06-07T21:48:53.441Z,26.87
2019-06-07T21:51:23.999Z,27.17
2019-06-07T21:53:54.528Z,26.87
2019-06-07T21:56:25.067Z,27.47
2019-06-07T21:58:55.645Z,27.10
2019-06-07T22:01:30.849Z,26.10
2019-06-07T22:04:01.529Z,29.67
2019-06-07T22:06:33.349Z,27.73
2019-06-07T22:09:05.664Z,28.63
2019-06-07T22:11:36.366Z,26.73
2019-06-07T22:14:08.393Z,29.43
2019-06-07T22:16:39.019Z,29.07
2019-06-07T22:19:10.782Z,26.43
2019-06-07T22:21:41.403Z,28.87
2019-06-07T22:24:13.043Z,30.90
2019-06-07T22:26:43.789Z,28.97
2019-06-07T22:29:15.781Z,37.00
2019-06-07T22:31:46.394Z,28.10
2019-06-07T22:34:16.911Z,28.30
2019-06-07T22:36:47.547Z,28.77
2019-06-07T22:39:18.079Z,27.67
2019-06-07T22:41:48.677Z,28.47
2019-06-07T22:44:19.385Z,27.13
2019-06-07T22:46:49.981Z,27.93
2019-06-07T22:49:20.722Z,27.87
2019-06-07T22:51:51.202Z,29.00
2019-06-07T22:54:21.853Z,30.10
2019-06-07T22:56:57.286Z,32.93
2019-06-07T22:59:27.849Z,30.47
2019-06-07T23:01:59.550Z,27.97
2019-06-07T23:04:30.271Z,31.67
2019-06-07T23:07:00.785Z,29.33
2019-06-07T23:09:31.432Z,29.33
2019-06-07T23:12:01.964Z,32.27
2019-06-07T23:14:32.512Z,29.10
2019-06-07T23:17:03.221Z,34.63
2019-06-07T23:19:33.739Z,31.33
2019-06-07T23:22:05.557Z,32.90
2019-06-07T23:24:36.092Z,34.43
2019-06-07T23:27:06.799Z,34.57
2019-06-07T23:29:37.357Z,35.47
2019-06-07T23:32:07.913Z,38.97
2019-06-07T23:34:40.673Z,38.97
2019-06-07T23:37:11.311Z,40.53
2019-06-07T23:39:41.931Z,39.80
2019-06-07T23:42:17.579Z,38.43
2019-06-07T23:44:49.548Z,40.10
2019-06-07T23:47:22.397Z,39.87
2019-06-07T23:49:53.423Z,39.73
2019-06-07T23:52:24.337Z,44.83
2019-06-07T23:54:57.513Z,41.30
2019-06-07T23:57:29.564Z,46.27
